createdAt,value
2023-03-12T00:02:26.756Z,2.50
2023-03-12T00:04:56.916Z,1.70
2023-03-12T00:07:26.065Z,2.90
2023-03-12T00:09:55.337Z,3.10
2023-03-12T00:12:30.898Z,4.00
2023-03-12T00:15:01.384Z,1.20
2023-03-12T00:17:30.709Z,3.30
2023-03-12T00:20:00.956Z,2.20
2023-03-12T00:22:31.196Z,1.90
2023-03-12T00:25:02.516Z,1.90
2023-03-12T00:27:33.489Z,2.60
2023-03-12T00:30:06.347Z,2.80
2023-03-12T00:32:35.974Z,2.40
2023-03-12T00:35:07.082Z,1.50
2023-03-12T00:37:39.806Z,2.40
2023-03-12T00:40:12.497Z,1.70
2023-03-12T00:42:42.741Z,2.10
2023-03-12T00:45:15.141Z,3.00
2023-03-12T00:47:45.540Z,3.00
2023-03-12T00:50:15.451Z,2.60
2023-03-12T00:52:46.914Z,2.00
2023-03-12T00:55:17.491Z,1.20
2023-03-12T00:57:47.021Z,2.70
2023-03-12T01:00:21.211Z,2.70
2023-03-12T01:02:51.284Z,1.40
2023-03-12T01:05:22.391Z,2.80
2023-03-12T01:07:51.676Z,2.40
2023-03-12T01:10:22.343Z,2.30
2023-03-12T01:12:54.846Z,2.20
2023-03-12T01:15:24.194Z,2.30
2023-03-12T01:17:53.614Z,1.90
2023-03-12T01:20:24.192Z,2.40
2023-03-12T01:22:54.375Z,2.80
2023-03-12T01:25:31.116Z,1.30
2023-03-12T01:28:04.477Z,2.40
2023-03-12T01:30:33.915Z,2.10
2023-03-12T01:33:03.736Z,2.70
2023-03-12T01:35:38.162Z,2.50
2023-03-12T01:38:10.174Z,2.30
2023-03-12T01:40:39.485Z,2.30
2023-03-12T01:43:34.297Z,2.90
2023-03-12T01:46:13.213Z,4.00
2023-03-12T01:48:59.883Z,3.10
2023-03-12T01:51:45.010Z,4.50
2023-03-12T01:54:39.744Z,5.50
2023-03-12T01:57:38.188Z,3.40
2023-03-12T02:00:13.465Z,3.10
2023-03-12T02:02:49.029Z,2.90
2023-03-12T02:05:38.742Z,3.10
2023-03-12T02:08:14.548Z,4.10
2023-03-12T02:10:43.820Z,4.60
2023-03-12T02:13:13.899Z,2.90
2023-03-12T02:15:46.914Z,3.40
2023-03-12T02:18:19.999Z,1.70
2023-03-12T02:21:01.914Z,3.30
2023-03-12T02:23:36.073Z,5.00
2023-03-12T02:26:07.730Z,3.90
2023-03-12T02:28:44.967Z,3.60
2023-03-12T02:31:22.580Z,3.50
2023-03-12T02:33:56.440Z,2.00
2023-03-12T02:36:25.555Z,3.40
2023-03-12T02:38:57.168Z,4.20
2023-03-12T02:41:42.421Z,4.80
2023-03-12T02:44:19.734Z,2.60
2023-03-12T02:46:55.455Z,3.20
2023-03-12T02:49:30.680Z,2.90
2023-03-12T02:52:04.349Z,3.70
2023-03-12T02:54:33.741Z,3.90
2023-03-12T02:57:04.302Z,4.90
2023-03-12T02:59:34.301Z,2.90
2023-03-12T03:02:07.555Z,4.50
2023-03-12T03:04:40.638Z,5.00
2023-03-12T03:07:10.142Z,1.90
2023-03-12T03:09:39.483Z,7.00
2023-03-12T03:12:11.754Z,2.80
2023-03-12T03:14:41.747Z,3.00
2023-03-12T03:17:11.229Z,2.90
2023-03-12T03:19:40.683Z,2.80
2023-03-12T03:22:12.921Z,1.90
2023-03-12T03:24:43.454Z,5.20
2023-03-12T03:27:14.856Z,3.80
2023-03-12T03:32:20.361Z,2.90
2023-03-12T03:34:49.562Z,2.40
2023-03-12T03:37:20.324Z,6.00
2023-03-12T03:39:50.823Z,2.40
2023-03-12T03:42:23.531Z,3.20
2023-03-12T03:44:52.732Z,3.20
2023-03-12T03:47:23.251Z,3.80
2023-03-12T03:49:52.443Z,3.10
2023-03-12T03:52:22.411Z,3.90
2023-03-12T03:54:54.828Z,3.50
2023-03-12T03:57:24.206Z,4.50
2023-03-12T03:59:54.083Z,3.20
2023-03-12T04:02:23.561Z,3.30
2023-03-12T04:04:53.426Z,3.50
2023-03-12T04:07:24.620Z,2.30
2023-03-12T04:09:55.010Z,4.80
2023-03-12T04:12:28.194Z,3.90
2023-03-12T04:14:57.400Z,5.80
2023-03-12T04:17:26.664Z,4.10
2023-03-12T04:19:58.780Z,3.40
2023-03-12T04:22:28.500Z,3.00
2023-03-12T04:24:57.795Z,4.00
2023-03-12T04:27:32.940Z,4.30
2023-03-12T04:30:10.089Z,3.00
2023-03-12T04:32:42.502Z,3.30
2023-03-12T04:35:13.441Z,3.10
2023-03-12T04:37:42.771Z,3.30
2023-03-12T04:40:14.233Z,3.90
2023-03-12T04:42:44.137Z,3.90
2023-03-12T04:45:15.443Z,2.30
2023-03-12T04:47:47.722Z,3.40
2023-03-12T04:50:18.036Z,5.00
2023-03-12T04:52:47.263Z,2.40
2023-03-12T04:55:16.697Z,5.20
2023-03-12T04:57:48.967Z,3.30
2023-03-12T05:00:19.467Z,3.60
2023-03-12T05:02:49.849Z,3.30
2023-03-12T05:05:19.178Z,3.60
2023-03-12T05:08:08.968Z,4.10
2023-03-12T05:10:40.294Z,3.60
2023-03-12T05:13:15.629Z,3.40
2023-03-12T05:15:46.150Z,7.30
2023-03-12T05:18:17.908Z,3.70
2023-03-12T05:20:48.026Z,5.00
2023-03-12T05:23:18.376Z,4.80
2023-03-12T05:25:51.832Z,5.40
2023-03-12T05:28:21.966Z,4.10
2023-03-12T05:30:51.927Z,4.20
2023-03-12T05:33:21.906Z,2.30
2023-03-12T05:35:51.398Z,3.10
2023-03-12T05:38:20.818Z,3.80
2023-03-12T05:40:56.195Z,3.80
2023-03-12T05:43:29.349Z,4.90
2023-03-12T05:46:04.523Z,3.90
2023-03-12T05:48:36.937Z,3.40
2023-03-12T05:51:07.767Z,3.40
2023-03-12T05:53:37.797Z,2.50
2023-03-12T05:56:11.654Z,2.40
2023-03-12T05:58:45.569Z,4.00
2023-03-12T06:01:21.246Z,4.90
2023-03-12T06:03:52.738Z,3.40
2023-03-12T06:06:23.686Z,3.10
2023-03-12T06:08:53.613Z,2.90
2023-03-12T06:11:23.668Z,3.90
2023-03-12T06:13:53.810Z,2.40
2023-03-12T06:16:26.040Z,3.80
2023-03-12T06:21:29.122Z,2.40
2023-03-12T06:24:09.709Z,3.90
2023-03-12T06:26:54.785Z,3.80
2023-03-12T06:29:24.759Z,4.40
2023-03-12T06:31:56.418Z,3.30
2023-03-12T06:34:26.021Z,3.80
2023-03-12T06:36:56.111Z,3.10
2023-03-12T06:39:25.458Z,4.00
2023-03-12T06:41:56.373Z,4.00
2023-03-12T06:44:28.749Z,2.40
2023-03-12T06:46:59.255Z,4.70
2023-03-12T06:49:33.782Z,4.00
2023-03-12T06:52:04.340Z,3.10
2023-03-12T06:54:33.703Z,3.90
2023-03-12T06:57:03.068Z,1.80
2023-03-12T06:59:32.508Z,2.60
2023-03-12T07:02:02.739Z,2.00
2023-03-12T07:04:32.359Z,5.90
2023-03-12T07:07:02.152Z,4.70
2023-03-12T07:09:31.439Z,3.30
2023-03-12T07:12:01.415Z,5.00
2023-03-12T07:14:31.542Z,4.30
2023-03-12T07:17:02.637Z,2.70
2023-03-12T07:19:32.550Z,3.50
2023-03-12T07:22:02.477Z,3.10
2023-03-12T07:24:31.716Z,3.90
2023-03-12T07:27:02.439Z,2.60
2023-03-12T07:29:33.257Z,5.30
2023-03-12T07:32:04.527Z,2.50
2023-03-12T07:34:35.625Z,4.30
2023-03-12T07:37:06.188Z,2.60
2023-03-12T07:39:35.413Z,2.60
2023-03-12T07:42:05.966Z,2.60
2023-03-12T07:44:37.332Z,4.50
2023-03-12T07:49:55.520Z,5.10
2023-03-12T07:52:24.732Z,2.00
2023-03-12T07:54:57.134Z,3.70
2023-03-12T07:57:26.619Z,2.10
2023-03-12T07:59:55.897Z,6.00
2023-03-12T08:02:25.230Z,3.90
2023-03-12T08:04:54.629Z,3.80
2023-03-12T08:07:24.506Z,4.20
2023-03-12T08:09:54.148Z,3.20
2023-03-12T08:12:23.544Z,2.40
2023-03-12T08:14:54.484Z,3.50
2023-03-12T08:17:26.963Z,5.10
2023-03-12T08:19:57.001Z,2.10
2023-03-12T08:22:27.552Z,2.80
2023-03-12T08:24:58.489Z,2.90
2023-03-12T08:27:28.247Z,4.10
2023-03-12T08:29:57.505Z,4.60
2023-03-12T08:32:28.780Z,6.30
2023-03-12T08:34:58.451Z,3.90
2023-03-12T08:37:30.688Z,3.30
2023-03-12T08:40:09.751Z,2.90
2023-03-12T08:42:49.073Z,3.30
2023-03-12T08:45:18.737Z,2.40
2023-03-12T08:47:48.562Z,3.30
2023-03-12T08:50:20.667Z,1.80
2023-03-12T08:52:49.862Z,2.80
2023-03-12T08:55:20.426Z,3.30
2023-03-12T08:57:50.124Z,4.20
2023-03-12T09:00:22.399Z,3.20
2023-03-12T09:02:52.933Z,4.00
2023-03-12T09:05:24.255Z,4.90
2023-03-12T09:07:53.321Z,3.40
2023-03-12T09:10:24.358Z,2.50
2023-03-12T09:12:53.457Z,2.00
2023-03-12T09:15:23.720Z,3.30
2023-03-12T09:17:59.733Z,2.20
2023-03-12T09:20:29.366Z,3.40
2023-03-12T09:22:58.543Z,5.60
2023-03-12T09:25:27.771Z,4.70
2023-03-12T09:27:57.788Z,3.60
2023-03-12T09:30:30.679Z,3.80
2023-03-12T09:33:01.049Z,3.10
2023-03-12T09:35:31.972Z,4.30
2023-03-12T09:38:01.148Z,4.30
2023-03-12T09:40:37.596Z,3.10
2023-03-12T09:43:30.608Z,3.70
2023-03-12T09:46:02.932Z,3.80
2023-03-12T09:48:42.177Z,4.20
2023-03-12T09:51:33.317Z,3.00
2023-03-12T09:54:08.789Z,3.40
2023-03-12T09:56:51.711Z,2.90
2023-03-12T09:59:23.207Z,4.50
2023-03-12T10:02:00.938Z,4.30
2023-03-12T10:04:58.011Z,5.50
2023-03-12T10:07:36.492Z,3.10
2023-03-12T10:10:57.337Z,4.90
2023-03-12T10:13:55.387Z,2.70
2023-03-12T10:16:58.350Z,3.40
2023-03-12T10:22:18.843Z,3.50
2023-03-12T10:27:38.164Z,4.10
2023-03-12T10:30:24.392Z,2.30
2023-03-12T10:33:04.792Z,2.90
2023-03-12T10:35:34.873Z,3.00
2023-03-12T10:38:12.705Z,3.00
2023-03-12T10:40:42.864Z,2.90
2023-03-12T10:43:12.453Z,3.30
2023-03-12T10:45:58.230Z,3.00
2023-03-12T10:48:28.653Z,5.40
2023-03-12T10:51:24.233Z,3.60
2023-03-12T10:53:53.330Z,3.10
2023-03-12T10:56:22.617Z,4.90
2023-03-12T10:58:54.687Z,4.40
2023-03-12T11:01:30.831Z,4.10
2023-03-12T11:04:30.281Z,3.00
2023-03-12T11:07:22.230Z,3.60
2023-03-12T11:10:23.534Z,3.00
2023-03-12T11:12:59.162Z,4.90
2023-03-12T11:15:41.964Z,3.30
2023-03-12T11:18:22.992Z,3.70
2023-03-12T11:20:56.957Z,4.00
2023-03-12T11:23:31.067Z,3.60
2023-03-12T11:26:13.541Z,5.00
2023-03-12T11:29:10.538Z,5.20
2023-03-12T11:31:47.214Z,2.70
2023-03-12T11:34:30.132Z,3.20
2023-03-12T11:37:05.720Z,5.60
2023-03-12T11:39:50.103Z,3.60
2023-03-12T11:42:53.196Z,3.40
2023-03-12T11:45:42.144Z,4.50
2023-03-12T11:48:28.252Z,3.80
2023-03-12T11:51:18.423Z,4.00
2023-03-12T11:54:20.513Z,2.90
2023-03-12T11:56:54.379Z,2.30
2023-03-12T12:00:13.543Z,2.50
2023-03-12T12:03:03.956Z,3.00
2023-03-12T12:06:11.121Z,2.70
2023-03-12T12:09:10.130Z,3.60
2023-03-12T12:11:51.596Z,2.40
2023-03-12T12:14:39.267Z,3.90
2023-03-12T12:17:37.922Z,2.80
2023-03-12T12:20:39.941Z,2.40
2023-03-12T12:23:45.841Z,3.70
2023-03-12T12:26:25.557Z,3.60
2023-03-12T12:29:14.566Z,2.90
2023-03-12T12:32:02.624Z,3.40
2023-03-12T12:35:08.257Z,3.30
2023-03-12T12:37:59.685Z,3.30
2023-03-12T12:40:41.902Z,3.40
2023-03-12T12:43:36.797Z,4.00
2023-03-12T12:46:17.987Z,2.40
2023-03-12T12:48:55.705Z,3.70
2023-03-12T12:51:32.238Z,3.20
2023-03-12T12:54:35.452Z,4.00
2023-03-12T12:57:25.823Z,3.20
2023-03-12T13:00:31.665Z,3.60
2023-03-12T13:03:02.120Z,2.70
2023-03-12T13:05:37.770Z,6.80
2023-03-12T13:08:10.976Z,3.20
2023-03-12T13:10:52.999Z,3.70
2023-03-12T13:13:32.078Z,4.00
2023-03-12T13:16:36.602Z,4.10
2023-03-12T13:19:26.737Z,3.30
2023-03-12T13:22:17.224Z,3.60
2023-03-12T13:25:10.982Z,4.50
2023-03-12T13:27:43.850Z,3.10
2023-03-12T13:30:34.963Z,2.80
2023-03-12T13:33:14.695Z,3.10
2023-03-12T13:36:04.160Z,3.50
2023-03-12T13:38:40.402Z,5.80
2023-03-12T13:41:09.669Z,3.90
2023-03-12T13:43:42.888Z,3.60
2023-03-12T13:46:15.613Z,3.10
2023-03-12T13:48:50.011Z,3.40
2023-03-12T13:51:22.265Z,4.00
2023-03-12T13:53:57.608Z,4.00
2023-03-12T13:56:31.457Z,4.70
2023-03-12T13:59:07.953Z,2.80
2023-03-12T14:01:50.243Z,4.80
2023-03-12T14:04:24.381Z,2.60
2023-03-12T14:07:04.810Z,3.10
2023-03-12T14:10:11.267Z,3.20
2023-03-12T14:13:09.509Z,3.10
2023-03-12T14:16:35.979Z,3.20
2023-03-12T14:19:07.328Z,3.60
2023-03-12T14:21:40.355Z,5.10
2023-03-12T14:24:32.840Z,4.60
2023-03-12T14:27:06.981Z,3.50
2023-03-12T14:29:48.370Z,5.60
2023-03-12T14:32:27.978Z,4.30
2023-03-12T14:35:24.145Z,5.90
2023-03-12T14:38:00.737Z,3.60
2023-03-12T14:40:45.019Z,2.90
2023-03-12T14:43:22.600Z,3.50
2023-03-12T14:45:57.595Z,3.60
2023-03-12T14:48:35.621Z,5.90
2023-03-12T14:51:08.329Z,4.20
2023-03-12T14:53:43.830Z,3.10
2023-03-12T14:56:28.563Z,3.00
2023-03-12T14:59:00.301Z,4.70
2023-03-12T15:01:41.376Z,5.40
2023-03-12T15:06:53.135Z,3.40
2023-03-12T15:09:27.401Z,5.40
2023-03-12T15:12:01.429Z,4.50
2023-03-12T15:14:34.918Z,3.30
2023-03-12T15:17:07.074Z,3.10
2023-03-12T15:19:40.729Z,10.30
2023-03-12T15:22:21.371Z,4.40
2023-03-12T15:24:51.116Z,2.80
2023-03-12T15:27:31.475Z,4.70
2023-03-12T15:30:02.227Z,3.50
2023-03-12T15:32:32.640Z,3.30
2023-03-12T15:35:14.208Z,4.60
2023-03-12T15:37:53.229Z,4.00
2023-03-12T15:40:26.703Z,5.40
2023-03-12T15:42:59.703Z,6.60
2023-03-12T15:45:39.053Z,3.50
2023-03-12T15:48:17.946Z,4.30
2023-03-12T15:50:48.241Z,3.90
2023-03-12T15:53:20.475Z,5.20
2023-03-12T15:56:23.754Z,7.10
2023-03-12T15:59:01.950Z,5.50
2023-03-12T16:01:49.906Z,6.40
2023-03-12T16:04:20.499Z,6.00
2023-03-12T16:06:53.309Z,7.60
2023-03-12T16:09:26.636Z,8.90
2023-03-12T16:11:57.643Z,4.50
2023-03-12T16:14:34.593Z,13.50
2023-03-12T16:17:04.052Z,8.10
2023-03-12T16:19:36.290Z,7.70
2023-03-12T16:22:07.048Z,6.90
2023-03-12T16:24:36.224Z,4.70
2023-03-12T16:27:07.582Z,5.40
2023-03-12T16:29:39.196Z,20.00
2023-03-12T16:32:14.317Z,11.50
2023-03-12T16:34:46.414Z,6.60
2023-03-12T16:37:16.655Z,6.40
2023-03-12T16:39:47.183Z,4.50
2023-03-12T16:42:19.237Z,5.30
2023-03-12T16:44:49.058Z,7.20
2023-03-12T16:47:18.426Z,7.90
2023-03-12T16:49:48.245Z,8.20
2023-03-12T16:52:21.241Z,9.40
2023-03-12T16:54:52.268Z,6.10
2023-03-12T16:57:34.858Z,6.20
2023-03-12T17:00:09.199Z,5.60
2023-03-12T17:02:39.396Z,7.10
2023-03-12T17:05:08.889Z,5.60
2023-03-12T17:07:40.173Z,10.00
2023-03-12T17:10:10.864Z,10.00
2023-03-12T17:12:42.410Z,7.80
2023-03-12T17:17:51.517Z,10.40
2023-03-12T17:20:23.001Z,7.70
2023-03-12T17:23:01.236Z,8.90
2023-03-12T17:25:33.199Z,10.40
2023-03-12T17:28:10.801Z,11.70
2023-03-12T17:30:40.625Z,10.70
2023-03-12T17:33:24.239Z,9.90
2023-03-12T17:36:01.915Z,12.60
2023-03-12T17:38:35.536Z,15.20
2023-03-12T17:41:19.846Z,16.80
2023-03-12T17:43:59.212Z,15.70
2023-03-12T17:46:56.488Z,17.50
2023-03-12T17:49:29.842Z,10.50
2023-03-12T17:51:58.993Z,12.10
2023-03-12T17:54:28.534Z,14.30
2023-03-12T17:56:57.637Z,14.70
2023-03-12T17:59:27.484Z,15.40
2023-03-12T18:01:57.056Z,15.50
2023-03-12T18:04:27.459Z,20.60
2023-03-12T18:06:56.816Z,23.20
2023-03-12T18:09:26.012Z,19.40
2023-03-12T18:11:56.616Z,18.70
2023-03-12T18:14:26.043Z,15.40
2023-03-12T18:16:55.646Z,16.90
2023-03-12T18:19:27.624Z,19.10
2023-03-12T18:22:01.072Z,14.00
2023-03-12T18:24:31.142Z,16.20
2023-03-12T18:27:01.006Z,12.80
2023-03-12T18:29:30.913Z,15.60
2023-03-12T18:32:11.607Z,14.80
2023-03-12T18:34:45.685Z,12.90
2023-03-12T18:37:14.916Z,15.10
2023-03-12T18:39:44.586Z,15.10
2023-03-12T18:42:14.099Z,11.30
2023-03-12T18:44:43.615Z,12.30
2023-03-12T18:47:12.986Z,12.20
2023-03-12T18:49:42.168Z,15.00
2023-03-12T18:52:12.318Z,12.70
2023-03-12T18:54:43.055Z,16.50
2023-03-12T18:57:13.139Z,11.70
2023-03-12T18:59:45.792Z,11.10
2023-03-12T19:02:16.921Z,14.50
2023-03-12T19:04:46.205Z,12.90
2023-03-12T19:07:20.406Z,13.70
2023-03-12T19:13:20.435Z,17.00
2023-03-12T19:15:52.302Z,16.80
2023-03-12T19:18:25.907Z,16.60
2023-03-12T19:20:56.118Z,14.60
2023-03-12T19:23:25.733Z,15.30
2023-03-12T19:26:00.484Z,14.60
2023-03-12T19:28:31.719Z,17.60
2023-03-12T19:31:03.508Z,16.40
2023-03-12T19:33:33.993Z,15.40
2023-03-12T19:36:05.007Z,13.00
2023-03-12T19:38:38.053Z,14.30
2023-03-12T19:41:09.686Z,13.50
2023-03-12T19:43:41.629Z,16.60
2023-03-12T19:46:11.398Z,13.80
2023-03-12T19:48:40.746Z,15.40
2023-03-12T19:51:12.026Z,14.60
2023-03-12T19:53:41.431Z,14.60
2023-03-12T19:56:13.970Z,13.80
2023-03-12T19:58:43.761Z,13.20
2023-03-12T20:01:13.054Z,11.90
2023-03-12T20:03:43.933Z,12.30
2023-03-12T20:06:13.551Z,11.80
2023-03-12T20:08:43.042Z,11.30
2023-03-12T20:11:12.924Z,12.20
2023-03-12T20:13:42.673Z,14.80
2023-03-12T20:16:14.343Z,17.50
2023-03-12T20:18:44.283Z,20.70
2023-03-12T20:21:15.017Z,23.90
2023-03-12T20:23:44.928Z,19.70
2023-03-12T20:26:15.464Z,21.30
2023-03-12T20:28:44.578Z,20.40
2023-03-12T20:31:16.892Z,16.90
2023-03-12T20:33:46.268Z,15.30
2023-03-12T20:36:15.919Z,15.00
2023-03-12T20:38:48.339Z,14.20
2023-03-12T20:41:18.182Z,15.20
2023-03-12T20:43:47.841Z,13.50
2023-03-12T20:46:17.694Z,15.50
2023-03-12T20:48:47.333Z,16.90
2023-03-12T20:51:16.747Z,19.00
2023-03-12T20:53:46.087Z,21.30
2023-03-12T20:56:15.778Z,22.40
2023-03-12T20:59:27.406Z,22.00
2023-03-12T21:01:57.359Z,21.00
2023-03-12T21:04:46.678Z,19.40
2023-03-12T21:07:27.106Z,18.90
2023-03-12T21:09:56.388Z,16.90
2023-03-12T21:12:25.966Z,16.80
2023-03-12T21:14:56.047Z,19.50
2023-03-12T21:17:25.241Z,15.30
2023-03-12T21:19:55.176Z,14.20
2023-03-12T21:22:25.064Z,16.90
2023-03-12T21:24:55.256Z,17.40
2023-03-12T21:27:24.847Z,19.50
2023-03-12T21:29:55.160Z,16.70
2023-03-12T21:32:25.132Z,17.40
2023-03-12T21:34:55.111Z,13.50
2023-03-12T21:37:26.533Z,17.10
2023-03-12T21:40:02.663Z,18.90
2023-03-12T21:42:33.829Z,20.50
2023-03-12T21:45:03.788Z,17.30
2023-03-12T21:47:36.467Z,19.60
2023-03-12T21:50:06.754Z,16.40
2023-03-12T21:52:43.010Z,20.20
2023-03-12T21:55:13.069Z,18.20
2023-03-12T21:57:46.523Z,14.70
2023-03-12T22:00:17.030Z,15.80
2023-03-12T22:02:49.075Z,14.80
2023-03-12T22:05:18.776Z,13.80
2023-03-12T22:07:50.896Z,17.00
2023-03-12T22:10:20.199Z,14.30
2023-03-12T22:12:49.822Z,15.20
2023-03-12T22:15:19.442Z,19.10
2023-03-12T22:17:48.687Z,15.70
2023-03-12T22:20:18.522Z,15.50
2023-03-12T22:22:50.146Z,15.70
2023-03-12T22:25:19.609Z,16.80
2023-03-12T22:27:49.057Z,13.60
2023-03-12T22:30:18.766Z,14.90
2023-03-12T22:32:48.323Z,15.00
2023-03-12T22:35:18.670Z,15.70
2023-03-12T22:37:50.115Z,15.10
2023-03-12T22:40:19.936Z,13.00
2023-03-12T22:42:54.188Z,13.30
2023-03-12T22:45:24.710Z,16.60
2023-03-12T22:47:54.362Z,16.70
2023-03-12T22:50:24.674Z,14.40
2023-03-12T22:52:54.119Z,15.40
2023-03-12T22:55:23.392Z,14.80
2023-03-12T22:57:53.092Z,16.10
2023-03-12T23:00:23.323Z,12.90
2023-03-12T23:02:52.672Z,14.10
2023-03-12T23:05:22.331Z,14.60
2023-03-12T23:07:54.098Z,11.20
2023-03-12T23:12:53.597Z,9.10
2023-03-12T23:15:29.074Z,12.60
2023-03-12T23:18:05.399Z,12.20
2023-03-12T23:20:34.809Z,14.50
2023-03-12T23:23:04.320Z,15.10
2023-03-12T23:25:34.319Z,15.30
2023-03-12T23:28:05.182Z,14.80
2023-03-12T23:30:35.829Z,12.90
2023-03-12T23:33:04.938Z,13.60
2023-03-12T23:35:34.888Z,12.60
2023-03-12T23:38:06.820Z,14.00
2023-03-12T23:40:36.155Z,17.20
2023-03-12T23:43:06.076Z,11.80
2023-03-12T23:45:35.929Z,12.00
2023-03-12T23:48:06.800Z,14.30
2023-03-12T23:50:37.003Z,13.50
2023-03-12T23:53:06.819Z,13.30
2023-03-12T23:55:35.850Z,13.00
2023-03-12T23:58:04.964Z,13.30
